Time;durP1;ratioP1;P1;durP2;ratioP2;P2;SDS_P1;SDS_P2;PMS_P1;PMS_P2;Temp;Humidity;BMP_temperature;BMP_pressure;BME280_temperature;BME280_humidity;BME280_pressure;Samples;Min_cycle;Max_cycle;Signal;HPM_P1;HPM_P2
2022/03/23 00:15:04;;;;;;;;;;;;;;;6.57;39.89;99231.84;4981299;28;19918;-82
2022/03/23 00:22:13;;;;;;;;;;;;;;;6.12;40.82;99230.19;4934743;29;20002;-81
2022/03/23 00:33:33;;;;;;;;;;;;;;;5.92;41.33;99221.84;4905551;29;19965;-82
2022/03/23 00:45:03;;;;;;;;;;;;;;;5.75;42.44;99230.75;4914232;29;19938;-80
2022/03/23 00:48:37;;;;;;;;;;;;;;;5.84;42.20;99233.84;4909953;29;19990;-81
2022/03/23 00:55:48;;;;;;;;;;;;;;;5.59;42.54;99225.34;4917913;29;19991;-81
2022/03/23 01:29:14;;;;;;;;;;;;;;;5.15;43.75;99231.41;5443143;23;19910;-81
2022/03/23 01:43:08;;;;;;;;;;;;;;;4.93;43.85;99234.00;5072861;23;19973;-82
2022/03/23 01:49:38;;;;;;;;;;;;;;;5.22;43.09;99215.91;4982451;28;19910;-82
2022/03/23 01:52:32;;;;;;;;;;;;;;;5.29;43.02;99221.13;4981671;28;19910;-81
2022/03/23 01:55:17;;;;;;;;;;;;;;;5.07;43.89;99229.13;4998152;28;19926;-82
2022/03/23 01:58:37;;;;;;;;;;;;;;;4.80;44.29;99220.84;4974801;28;20024;-81
2022/03/23 02:02:08;;;;;;;;;;;;;;;4.47;45.01;99222.38;4972943;28;19922;-81
2022/03/23 02:08:31;;;;;;;;;;;;;;;4.46;45.06;99227.97;5254653;23;19910;-82
2022/03/23 02:11:08;;;;;;;;;;;;;;;4.54;44.69;99224.91;4980585;28;19910;-82
2022/03/23 03:59:41;;;;;;;;;;;;;;;3.53;48.62;99221.69;4846320;29;19913;-83
2022/03/23 04:18:48;;;;;;;;;;;;;;;3.56;47.94;99231.16;5063375;23;19978;-82
2022/03/23 04:47:43;;;;;;;;;;;;;;;3.26;48.23;99248.19;4864859;29;19920;-82
2022/03/23 05:11:31;;;;;;;;;;;;;;;2.82;49.36;99254.81;4950666;23;19970;-82
2022/03/23 05:32:18;;;;;;;;;;;;;;;3.89;47.13;99270.91;5557580;22;16487168;-78
2022/03/23 06:19:10;;;;;;;;;;;;;;;4.05;49.96;99285.47;6127574;23;19920;-75
2022/03/23 16:00:43;;;;;;;;;;;;;;;17.21;22.60;98997.41;5884402;24;19923;-74
2022/03/23 16:03:13;;;;;;;;;;;;;;;17.06;21.68;98992.44;5958609;23;20357;-74
2022/03/23 16:05:41;;;;;;;;;;;;;;;17.10;25.19;98998.06;6008119;23;19923;-74
2022/03/23 16:08:13;;;;;;;;;;;;;;;17.22;21.78;98992.72;6013167;23;19922;-74
2022/03/23 16:10:41;;;;;;;;;;;;;;;17.11;21.68;98995.00;6012966;23;20004;-72
2022/03/23 16:13:10;;;;;;;;;;;;;;;17.09;22.37;98994.50;6036873;23;19928;-72
2022/03/23 16:15:38;;;;;;;;;;;;;;;17.06;22.23;98997.94;5988960;23;20231;-73
2022/03/23 16:18:07;;;;;;;;;;;;;;;17.01;22.49;99000.84;5989809;23;19922;-72
2022/03/23 16:20:36;;;;;;;;;;;;;;;16.90;21.09;99002.34;5989638;23;20417;-72
2022/03/23 16:23:05;;;;;;;;;;;;;;;16.98;22.27;99007.78;5989252;23;19922;-72
2022/03/23 16:25:57;;;;;;;;;;;;;;;16.85;22.29;98994.28;5989214;23;20369;-72
2022/03/23 16:28:26;;;;;;;;;;;;;;;16.71;21.70;99006.22;5989505;23;20004;-73
2022/03/23 16:30:56;;;;;;;;;;;;;;;16.60;21.53;99004.91;6020870;23;19925;-73
2022/03/23 16:33:25;;;;;;;;;;;;;;;16.62;23.52;99001.84;6070222;23;20355;-72
2022/03/23 16:35:58;;;;;;;;;;;;;;;16.60;21.38;99004.91;6045975;23;20307;-74
2022/03/23 16:38:27;;;;;;;;;;;;;;;16.63;23.92;99004.28;6069877;23;19921;-72
2022/03/23 16:41:33;;;;;;;;;;;;;;;16.63;24.03;99007.03;6045421;23;19934;-72
2022/03/23 16:43:44;;;;;;;;;;;;;;;16.42;23.71;98998.63;6069004;23;20456;-72
2022/03/23 16:46:12;;;;;;;;;;;;;;;16.41;23.90;98996.22;6045800;23;19930;-72
2022/03/23 16:48:44;;;;;;;;;;;;;;;16.26;22.93;99002.19;6069563;23;19928;-73
2022/03/23 16:51:14;;;;;;;;;;;;;;;16.20;23.18;99007.84;6112287;23;20255;-75
2022/03/23 16:53:42;;;;;;;;;;;;;;;16.21;23.23;99003.97;6158766;23;19948;-73
2022/03/23 16:56:14;;;;;;;;;;;;;;;16.21;25.97;99006.69;6133612;23;20331;-73
2022/03/23 16:58:42;;;;;;;;;;;;;;;16.11;24.32;99004.28;6149458;23;19991;-77
2022/03/23 17:01:10;;;;;;;;;;;;;;;15.95;24.76;99001.19;6181825;23;20002;-73
2022/03/23 17:14:47;;;;;;;;;;;;;;;15.73;26.61;99003.25;6188839;23;19920;-73
2022/03/23 17:17:15;;;;;;;;;;;;;;;15.62;25.63;99002.69;6213587;23;19920;-74
2022/03/23 17:19:46;;;;;;;;;;;;;;;15.56;26.12;98998.50;6163992;23;19927;-74
2022/03/23 17:22:15;;;;;;;;;;;;;;;15.49;28.28;99003.59;6163556;23;20397;-71
2022/03/23 17:24:48;;;;;;;;;;;;;;;15.36;25.55;99011.63;6189408;23;19920;-76
2022/03/23 17:27:17;;;;;;;;;;;;;;;15.38;29.40;99009.38;6163465;23;20246;-73
2022/03/23 17:29:45;;;;;;;;;;;;;;;15.33;30.78;99008.69;6163235;23;20335;-74
2022/03/23 17:32:13;;;;;;;;;;;;;;;15.29;33.64;99018.69;6161300;23;19920;-73
2022/03/23 17:34:41;;;;;;;;;;;;;;;15.27;31.09;99007.22;6162822;23;19927;-73
2022/03/23 17:37:09;;;;;;;;;;;;;;;15.19;33.53;99014.28;6162070;23;19920;-73
2022/03/23 17:39:39;;;;;;;;;;;;;;;15.15;30.89;99008.63;6187285;23;19920;-74
2022/03/23 17:42:09;;;;;;;;;;;;;;;15.05;33.64;99019.84;6162354;23;20243;-73
2022/03/23 17:44:39;;;;;;;;;;;;;;;14.94;32.75;99010.28;6187800;23;20333;-73
2022/03/23 17:47:08;;;;;;;;;;;;;;;14.90;33.39;99021.03;6163814;23;20238;-73
2022/03/23 17:49:37;;;;;;;;;;;;;;;14.82;31.42;99012.78;6167059;23;19942;-74
2022/03/23 17:52:06;;;;;;;;;;;;;;;14.79;34.72;99019.69;6166983;23;19958;-74
2022/03/23 17:54:35;;;;;;;;;;;;;;;14.70;34.22;99023.47;6163095;23;20293;-74
2022/03/23 17:57:05;;;;;;;;;;;;;;;14.63;34.51;99021.97;6162527;23;19963;-73
2022/03/23 17:59:33;;;;;;;;;;;;;;;14.60;35.36;99021.81;6187299;23;19920;-74
2022/03/23 18:02:01;;;;;;;;;;;;;;;14.47;33.92;99020.72;6188587;23;20327;-74
2022/03/23 18:04:30;;;;;;;;;;;;;;;14.46;34.56;99021.03;6163864;23;19920;-74
2022/03/23 18:06:59;;;;;;;;;;;;;;;14.37;34.19;99019.00;6163787;23;19927;-74
2022/03/23 18:09:28;;;;;;;;;;;;;;;14.25;32.45;99020.69;6188551;23;19920;-74
2022/03/23 18:11:56;;;;;;;;;;;;;;;14.04;31.13;99018.41;6189341;23;19920;-74
2022/03/23 18:14:32;;;;;;;;;;;;;;;13.92;31.58;99020.84;6163343;23;19955;-73
2022/03/23 18:17:00;;;;;;;;;;;;;;;13.85;31.92;99015.81;6164309;23;19924;-74
2022/03/23 18:19:28;;;;;;;;;;;;;;;13.80;31.96;99024.13;6163807;23;19927;-73
2022/03/23 18:21:57;;;;;;;;;;;;;;;13.68;32.21;99028.44;6160112;23;19920;-73
2022/03/23 18:24:25;;;;;;;;;;;;;;;13.54;32.08;99026.56;6162783;23;20003;-73
2022/03/23 18:26:55;;;;;;;;;;;;;;;13.44;33.40;99020.47;6163082;23;20007;-74
2022/03/23 18:29:23;;;;;;;;;;;;;;;13.28;32.33;99026.22;6216993;23;20339;-74
2022/03/23 18:31:55;;;;;;;;;;;;;;;13.17;32.94;99023.97;6163906;23;19920;-74
2022/03/23 18:34:53;;;;;;;;;;;;;;;13.07;32.75;99022.22;6164817;23;19920;-74
2022/03/23 18:37:22;;;;;;;;;;;;;;;12.99;32.55;99029.16;6140498;23;19943;-74
2022/03/23 18:39:50;;;;;;;;;;;;;;;12.92;32.59;99034.22;6162769;23;20072;-74
2022/03/23 18:42:20;;;;;;;;;;;;;;;12.85;32.85;99025.63;6163816;23;19920;-74
2022/03/23 18:44:49;;;;;;;;;;;;;;;12.77;33.24;99027.09;6163922;23;19920;-74
2022/03/23 18:47:18;;;;;;;;;;;;;;;12.94;33.65;99031.16;6187729;23;19927;-74
2022/03/23 18:52:52;;;;;;;;;;;;;;;12.70;34.13;99037.56;6163920;23;19927;-73
2022/03/23 18:55:20;;;;;;;;;;;;;;;12.61;33.77;99035.81;6189817;23;20010;-74
2022/03/23 18:57:51;;;;;;;;;;;;;;;12.49;33.38;99042.53;6157112;23;19923;-74
2022/03/23 19:00:20;;;;;;;;;;;;;;;12.48;33.50;99032.75;6159811;23;19955;-74
2022/03/23 19:02:49;;;;;;;;;;;;;;;12.47;33.53;99036.59;6158405;23;19919;-74
2022/03/23 19:05:18;;;;;;;;;;;;;;;12.37;33.88;99041.38;6211107;23;20304;-74
2022/03/23 19:07:52;;;;;;;;;;;;;;;12.28;34.02;99043.94;6163712;23;19968;-74
2022/03/23 19:10:27;;;;;;;;;;;;;;;12.18;34.18;99041.38;6190005;23;19931;-74
2022/03/23 19:12:56;;;;;;;;;;;;;;;12.13;34.76;99039.50;6163818;23;19919;-74
2022/03/23 19:15:24;;;;;;;;;;;;;;;12.09;34.28;99043.94;6159541;23;19920;-74
2022/03/23 19:17:55;;;;;;;;;;;;;;;12.01;34.36;99042.69;6184935;23;19920;-74
2022/03/23 19:20:28;;;;;;;;;;;;;;;11.99;34.81;99044.91;6165056;23;20354;-74
2022/03/23 19:22:56;;;;;;;;;;;;;;;12.29;34.95;99048.28;6164017;23;19960;-74
2022/03/23 19:25:25;;;;;;;;;;;;;;;12.10;34.79;99051.00;6163696;23;20382;-73
2022/03/23 19:27:54;;;;;;;;;;;;;;;12.10;34.62;99050.22;6163439;23;20362;-73
2022/03/23 19:30:22;;;;;;;;;;;;;;;11.96;35.04;99050.91;6213158;23;19920;-73
2022/03/23 19:32:50;;;;;;;;;;;;;;;11.86;34.93;99052.97;6162180;23;19920;-74
2022/03/23 19:35:20;;;;;;;;;;;;;;;11.95;34.43;99053.94;6163010;23;19920;-74
2022/03/23 19:37:49;;;;;;;;;;;;;;;11.85;35.36;99051.34;6188670;23;20413;-74
2022/03/23 19:40:17;;;;;;;;;;;;;;;11.82;35.05;99055.44;6188703;23;20374;-74
2022/03/23 19:42:45;;;;;;;;;;;;;;;11.83;35.09;99053.56;6162431;23;19920;-73
2022/03/23 19:45:14;;;;;;;;;;;;;;;11.79;35.45;99051.38;6188509;23;19924;-74
2022/03/23 19:47:42;;;;;;;;;;;;;;;11.68;35.65;99054.50;6163781;23;19947;-73
2022/03/23 19:50:11;;;;;;;;;;;;;;;11.61;35.56;99049.44;6163170;23;19924;-73
2022/03/23 19:52:40;;;;;;;;;;;;;;;11.73;34.75;99065.34;6163012;23;20238;-73
2022/03/23 19:55:11;;;;;;;;;;;;;;;11.80;35.04;99058.44;6163621;23;20359;-73
2022/03/23 19:57:40;;;;;;;;;;;;;;;11.82;34.78;99060.06;6163065;23;19974;-74
2022/03/23 20:00:09;;;;;;;;;;;;;;;11.66;35.39;99064.88;6162642;23;19994;-73
2022/03/23 20:02:37;;;;;;;;;;;;;;;11.53;35.57;99069.91;6160351;23;19934;-74
2022/03/23 20:05:06;;;;;;;;;;;;;;;11.62;35.26;99067.38;6162482;23;19923;-74
2022/03/23 20:07:37;;;;;;;;;;;;;;;11.61;35.64;99071.22;6163216;23;19920;-73
2022/03/23 20:10:08;;;;;;;;;;;;;;;11.69;36.71;99067.03;6163013;23;19923;-74
2022/03/23 20:12:37;;;;;;;;;;;;;;;11.70;36.10;99066.72;6161183;23;19920;-74
2022/03/23 20:15:06;;;;;;;;;;;;;;;11.44;36.07;99066.19;6181479;23;20354;-73
2022/03/23 20:17:35;;;;;;;;;;;;;;;11.26;36.52;99069.66;6132414;23;19924;-74
2022/03/23 20:20:04;;;;;;;;;;;;;;;11.45;37.25;99065.13;6134458;23;20412;-73
2022/03/23 20:22:32;;;;;;;;;;;;;;;11.52;36.41;99062.03;6133662;23;19927;-74
2022/03/23 20:25:00;;;;;;;;;;;;;;;11.27;36.94;99065.84;6183911;23;19921;-73
2022/03/23 20:27:30;;;;;;;;;;;;;;;11.30;36.92;99069.91;6134976;23;19944;-73
2022/03/23 20:29:58;;;;;;;;;;;;;;;11.34;36.80;99071.75;6184821;23;19920;-74
2022/03/23 20:32:26;;;;;;;;;;;;;;;11.38;37.41;99077.44;6208409;23;20320;-74
2022/03/23 20:34:54;;;;;;;;;;;;;;;11.49;37.20;99073.50;6110813;23;19921;-73
2022/03/23 20:37:22;;;;;;;;;;;;;;;11.45;37.45;99073.28;6134235;23;19920;-74
2022/03/23 20:39:50;;;;;;;;;;;;;;;11.17;37.58;99079.53;6134671;23;19920;-75
2022/03/23 20:42:18;;;;;;;;;;;;;;;11.14;38.05;99074.69;6135180;23;19920;-74
2022/03/23 20:44:48;;;;;;;;;;;;;;;11.33;37.99;99081.00;6183988;23;19920;-74
2022/03/23 20:47:18;;;;;;;;;;;;;;;11.03;37.59;99079.41;6134635;23;19920;-74
2022/03/23 20:49:46;;;;;;;;;;;;;;;10.82;37.95;99070.59;6134721;23;19920;-74
2022/03/23 20:52:15;;;;;;;;;;;;;;;10.54;38.80;99080.31;6134544;23;19979;-74
2022/03/23 20:54:44;;;;;;;;;;;;;;;10.49;38.98;99077.63;6136131;23;20328;-74
2022/03/23 20:57:13;;;;;;;;;;;;;;;10.43;39.04;99079.56;6134934;23;19952;-74
2022/03/23 20:59:41;;;;;;;;;;;;;;;10.23;39.86;99069.66;6134409;23;19920;-74
2022/03/23 21:02:11;;;;;;;;;;;;;;;10.60;40.79;99072.94;6157152;23;19972;-74
2022/03/23 21:04:40;;;;;;;;;;;;;;;10.77;38.42;99067.94;6134113;23;19920;-74
2022/03/23 21:07:07;;;;;;;;;;;;;;;10.27;39.64;99069.06;6133745;23;19928;-74
2022/03/23 21:09:38;;;;;;;;;;;;;;;10.18;39.89;99061.50;6183452;23;19920;-74
2022/03/23 21:12:09;;;;;;;;;;;;;;;10.26;39.97;99065.56;6207672;23;20295;-74
2022/03/23 21:14:37;;;;;;;;;;;;;;;10.33;39.50;99068.75;6183675;23;20335;-74
2022/03/23 21:17:07;;;;;;;;;;;;;;;10.10;40.10;99067.50;6133674;23;20027;-74
2022/03/23 21:19:36;;;;;;;;;;;;;;;10.02;40.29;99068.09;6133392;23;19925;-75
2022/03/23 21:22:05;;;;;;;;;;;;;;;9.98;40.31;99067.03;6158461;23;19975;-73
2022/03/23 21:24:33;;;;;;;;;;;;;;;9.92;40.50;99071.69;6134510;23;19928;-73
2022/03/23 21:27:02;;;;;;;;;;;;;;;9.83;40.62;99065.19;6133823;23;19920;-75
2022/03/23 21:29:30;;;;;;;;;;;;;;;10.08;40.83;99063.47;6131859;23;19971;-74
2022/03/23 21:31:58;;;;;;;;;;;;;;;10.34;40.41;99064.16;6157583;23;19921;-73
2022/03/23 21:34:31;;;;;;;;;;;;;;;10.23;40.25;99074.25;6132453;23;19952;-73
2022/03/23 21:37:02;;;;;;;;;;;;;;;10.32;40.46;99075.28;6133176;23;19927;-73
2022/03/23 21:39:33;;;;;;;;;;;;;;;10.26;39.85;99072.88;6158966;23;20351;-74
2022/03/23 21:42:01;;;;;;;;;;;;;;;10.30;40.76;99074.78;6133565;23;19995;-74
2022/03/23 21:44:29;;;;;;;;;;;;;;;10.32;39.73;99066.34;6134232;23;19936;-74
2022/03/23 21:47:04;;;;;;;;;;;;;;;10.17;39.68;99065.31;6133519;23;19921;-74
2022/03/23 21:49:32;;;;;;;;;;;;;;;10.32;39.84;99061.72;6133020;23;19943;-74
2022/03/23 21:52:04;;;;;;;;;;;;;;;9.97;40.55;99060.81;6132945;23;19924;-73
2022/03/23 21:54:33;;;;;;;;;;;;;;;10.15;40.76;99061.25;6157484;23;19948;-74
2022/03/23 21:57:01;;;;;;;;;;;;;;;10.28;40.19;99066.09;6158436;23;19939;-74
2022/03/23 21:59:30;;;;;;;;;;;;;;;10.23;40.16;99063.38;6132959;23;20419;-74
2022/03/23 22:01:58;;;;;;;;;;;;;;;10.12;40.19;99062.63;6157376;23;20416;-74
2022/03/23 22:04:27;;;;;;;;;;;;;;;10.12;39.99;99067.22;6134820;23;20306;-74
2022/03/23 22:06:55;;;;;;;;;;;;;;;9.89;40.74;99069.50;6136076;23;19999;-75
2022/03/23 22:09:25;;;;;;;;;;;;;;;9.73;40.39;99067.13;6159584;23;19968;-74
2022/03/23 22:11:53;;;;;;;;;;;;;;;9.64;41.19;99066.88;6159406;23;20283;-74
2022/03/23 22:14:21;;;;;;;;;;;;;;;9.59;40.73;99064.22;6135320;23;19920;-74
2022/03/23 22:17:16;;;;;;;;;;;;;;;9.21;41.78;99060.22;6189564;23;19952;-74
2022/03/23 22:19:48;;;;;;;;;;;;;;;9.52;41.66;99066.41;6164361;23;19987;-74
2022/03/23 22:22:17;;;;;;;;;;;;;;;9.79;41.36;99069.56;6163716;23;19920;-74
2022/03/23 22:24:46;;;;;;;;;;;;;;;9.54;41.01;99066.94;6189062;23;19920;-74
2022/03/23 22:27:14;;;;;;;;;;;;;;;9.76;40.83;99061.16;6163096;23;19920;-75
2022/03/23 22:29:45;;;;;;;;;;;;;;;9.28;41.38;99058.88;6164010;23;19928;-74
2022/03/23 22:32:13;;;;;;;;;;;;;;;8.96;42.19;99061.09;6163003;23;19920;-74
2022/03/23 22:34:49;;;;;;;;;;;;;;;9.28;41.82;99061.59;6190282;23;19943;-74
2022/03/23 22:37:17;;;;;;;;;;;;;;;9.59;41.45;99067.75;6164396;23;19920;-74
2022/03/23 22:39:47;;;;;;;;;;;;;;;9.61;41.23;99064.75;6163392;23;19970;-75
2022/03/23 22:42:15;;;;;;;;;;;;;;;9.60;41.34;99063.94;6163344;23;19966;-75
2022/03/23 22:44:43;;;;;;;;;;;;;;;9.66;40.96;99062.03;6164193;23;19920;-74
2022/03/23 22:47:12;;;;;;;;;;;;;;;9.09;41.83;99061.34;6164247;23;19970;-74
2022/03/23 22:49:41;;;;;;;;;;;;;;;9.04;42.40;99064.03;6188837;23;19924;-74
2022/03/23 22:52:10;;;;;;;;;;;;;;;9.17;42.04;99062.69;6163909;23;19934;-75
2022/03/23 22:54:38;;;;;;;;;;;;;;;9.23;42.71;99058.88;6163833;23;19934;-74
2022/03/23 22:57:07;;;;;;;;;;;;;;;9.16;42.66;99064.59;6163944;23;19924;-75
2022/03/23 22:59:37;;;;;;;;;;;;;;;8.99;42.23;99055.09;6188727;23;19920;-74
2022/03/23 23:02:30;;;;;;;;;;;;;;;9.03;43.02;99053.50;6188304;23;19919;-74
2022/03/23 23:04:58;;;;;;;;;;;;;;;9.08;42.58;99065.13;6188923;23;19920;-75
2022/03/23 23:07:26;;;;;;;;;;;;;;;9.16;42.52;99061.88;6164217;23;19920;-74
2022/03/23 23:09:58;;;;;;;;;;;;;;;9.13;42.43;99061.59;6163928;23;19927;-75
2022/03/23 23:12:31;;;;;;;;;;;;;;;9.11;42.16;99063.78;6163812;23;19920;-74
2022/03/23 23:14:59;;;;;;;;;;;;;;;9.10;42.22;99062.13;6155045;23;19920;-74
2022/03/23 23:17:27;;;;;;;;;;;;;;;8.95;42.76;99059.44;6134202;23;20259;-74
2022/03/23 23:19:55;;;;;;;;;;;;;;;9.01;43.80;99061.91;6133623;23;20232;-74
2022/03/23 23:22:23;;;;;;;;;;;;;;;9.14;42.62;99060.50;6133612;23;19968;-74
2022/03/23 23:24:51;;;;;;;;;;;;;;;9.17;43.09;99057.28;6158161;23;19924;-74
